createdAt,value
2019-03-16T00:02:18.731Z,84.90
2019-03-16T00:07:43.124Z,86.90
2019-03-16T00:12:48.666Z,89.10
2019-03-16T00:18:13.239Z,90.50
2019-03-16T00:23:19.030Z,90.60
2019-03-16T00:28:24.386Z,91.30
2019-03-16T00:33:29.694Z,91.50
2019-03-16T00:38:35.184Z,91.10
2019-03-16T00:43:40.354Z,90.30
2019-03-16T00:48:46.183Z,90.70
2019-03-16T00:53:51.515Z,90.10
2019-03-16T00:58:56.634Z,89.60
2019-03-16T01:04:02.004Z,88.00
2019-03-16T01:09:08.643Z,88.40
2019-03-16T01:14:14.215Z,86.70
2019-03-16T01:19:19.860Z,86.50
2019-03-16T01:24:25.317Z,85.00
2019-03-16T01:29:30.644Z,86.20
2019-03-16T01:34:35.794Z,86.40
2019-03-16T01:40:00.398Z,86.40
2019-03-16T01:45:25.019Z,89.40
2019-03-16T01:50:40.046Z,91.20
2019-03-16T01:56:04.642Z,93.10
2019-03-16T02:01:21.620Z,94.00
2019-03-16T02:06:39.332Z,95.00
2019-03-16T02:11:45.298Z,95.30
2019-03-16T02:16:51.416Z,96.40
2019-03-16T02:21:57.139Z,97.20
2019-03-16T02:27:03.797Z,97.30
2019-03-16T02:32:09.789Z,97.90
2019-03-16T02:37:15.741Z,97.60
2019-03-16T02:42:40.816Z,98.10
2019-03-16T02:47:46.564Z,98.10
2019-03-16T02:52:52.767Z,98.20
2019-03-16T02:57:58.774Z,97.70
2019-03-16T03:03:05.144Z,98.10
2019-03-16T03:08:29.799Z,97.90
2019-03-16T03:13:34.933Z,97.70
2019-03-16T03:18:59.516Z,97.50
2019-03-16T03:24:04.681Z,97.10
2019-03-16T03:29:29.276Z,97.50
2019-03-16T03:34:34.135Z,97.40
2019-03-16T03:39:59.083Z,97.10
2019-03-16T03:45:24.097Z,97.30
2019-03-16T03:50:39.684Z,97.10
2019-03-16T03:55:44.825Z,97.30
2019-03-16T04:01:09.239Z,97.20
2019-03-16T04:06:14.418Z,97.00
2019-03-16T04:11:39.269Z,96.80
2019-03-16T04:16:44.551Z,96.70
2019-03-16T04:21:49.734Z,96.60
2019-03-16T04:26:54.939Z,96.60
2019-03-16T04:32:00.145Z,96.30
2019-03-16T04:37:24.599Z,96.10
2019-03-16T04:42:49.650Z,96.10
2019-03-16T04:47:54.927Z,96.00
2019-03-16T04:53:19.548Z,96.10
2019-03-16T04:58:25.184Z,95.80
2019-03-16T05:03:30.416Z,96.40
2019-03-16T05:08:35.608Z,96.30
2019-03-16T05:13:40.944Z,96.80
2019-03-16T05:18:46.042Z,96.30
2019-03-16T05:23:51.215Z,96.30
2019-03-16T05:28:57.144Z,96.30
2019-03-16T05:34:22.000Z,96.20
2019-03-16T05:39:27.163Z,96.70
2019-03-16T05:44:32.318Z,96.70
2019-03-16T05:49:57.111Z,96.70
2019-03-16T05:55:02.665Z,96.80
2019-03-16T06:00:27.484Z,96.80
2019-03-16T06:05:32.370Z,97.00
2019-03-16T06:10:37.588Z,96.90
2019-03-16T06:15:43.136Z,96.80
2019-03-16T06:21:09.593Z,96.80
2019-03-16T06:26:25.046Z,96.70
2019-03-16T06:31:30.232Z,96.90
2019-03-16T06:36:35.258Z,97.40
2019-03-16T06:41:59.959Z,97.10
2019-03-16T06:47:04.995Z,97.60
2019-03-16T06:52:29.358Z,97.70
2019-03-16T06:57:34.645Z,97.70
2019-03-16T07:02:39.969Z,98.20
2019-03-16T07:07:45.098Z,98.20
2019-03-16T07:12:50.397Z,98.40
2019-03-16T07:17:55.547Z,98.40
2019-03-16T07:23:01.133Z,98.30
2019-03-16T07:28:06.936Z,98.50
2019-03-16T07:33:31.513Z,98.60
2019-03-16T07:38:36.837Z,98.20
2019-03-16T07:43:41.883Z,98.10
2019-03-16T07:48:46.827Z,97.70
2019-03-16T07:53:51.992Z,97.30
2019-03-16T07:59:16.768Z,96.60
2019-03-16T08:04:21.412Z,94.90
2019-03-16T08:09:26.921Z,94.60
2019-03-16T08:14:32.204Z,94.50
2019-03-16T08:19:37.447Z,93.80
2019-03-16T08:24:42.499Z,93.80
2019-03-16T08:29:47.935Z,93.30
2019-03-16T08:35:12.292Z,94.20
2019-03-16T08:40:17.864Z,94.70
2019-03-16T08:45:23.137Z,94.20
2019-03-16T08:50:28.521Z,94.30
2019-03-16T08:55:53.023Z,92.40
2019-03-16T09:00:58.438Z,91.40
2019-03-16T09:06:22.857Z,91.00
2019-03-16T09:11:38.458Z,90.80
2019-03-16T09:17:03.072Z,90.20
2019-03-16T09:22:08.457Z,88.40
2019-03-16T09:27:13.846Z,90.30
2019-03-16T09:32:37.937Z,89.00
2019-03-16T09:38:05.197Z,88.80
2019-03-16T09:43:09.475Z,87.00
2019-03-16T09:48:14.837Z,87.30
2019-03-16T09:53:20.116Z,83.60
2019-03-16T09:58:31.111Z,84.60
2019-03-16T10:03:32.211Z,90.20
2019-03-16T10:08:56.635Z,90.30
2019-03-16T10:14:02.074Z,90.10
2019-03-16T10:19:07.423Z,90.40
2019-03-16T10:24:12.569Z,90.30
2019-03-16T10:29:17.751Z,91.60
2019-03-16T10:34:22.968Z,91.60
2019-03-16T10:39:27.986Z,93.00
2019-03-16T10:44:32.889Z,93.70
2019-03-16T10:49:38.256Z,94.40
2019-03-16T10:54:43.467Z,94.60
2019-03-16T11:00:09.507Z,93.70
2019-03-16T11:05:14.999Z,93.70
2019-03-16T11:10:39.499Z,91.90
2019-03-16T11:15:44.815Z,91.50
2019-03-16T11:20:49.823Z,91.10
2019-03-16T11:25:55.103Z,91.60
2019-03-16T11:31:10.215Z,92.70
2019-03-16T11:36:15.706Z,92.10
2019-03-16T11:41:20.584Z,91.60
2019-03-16T11:46:25.855Z,91.10
2019-03-16T11:51:31.156Z,88.80
2019-03-16T11:56:36.749Z,90.80
2019-03-16T12:01:42.120Z,90.90
2019-03-16T12:06:46.966Z,89.40
2019-03-16T12:11:52.433Z,85.80
2019-03-16T12:17:17.329Z,88.50
2019-03-16T12:22:22.530Z,86.90
2019-03-16T12:27:39.697Z,87.60
2019-03-16T12:32:57.028Z,82.70
2019-03-16T12:38:02.303Z,81.20
2019-03-16T12:43:26.941Z,80.10
2019-03-16T12:48:32.441Z,80.80
2019-03-16T12:53:39.526Z,78.30
2019-03-16T12:58:44.836Z,75.10
2019-03-16T13:03:50.576Z,76.00
2019-03-16T13:08:56.092Z,75.60
2019-03-16T13:14:20.897Z,75.10
2019-03-16T13:19:26.418Z,74.90
2019-03-16T13:24:31.851Z,71.90
2019-03-16T13:29:37.699Z,70.00
2019-03-16T13:34:42.830Z,72.40
2019-03-16T13:39:48.770Z,72.60
2019-03-16T13:44:54.293Z,70.10
2019-03-16T13:49:59.959Z,73.00
2019-03-16T13:55:06.896Z,70.20
2019-03-16T14:00:31.573Z,71.70
2019-03-16T14:05:46.865Z,71.60
2019-03-16T14:10:52.643Z,70.30
2019-03-16T14:15:58.501Z,69.50
2019-03-16T14:21:03.339Z,68.80
2019-03-16T14:26:08.565Z,67.00
2019-03-16T14:31:14.284Z,63.70
2019-03-16T14:36:19.822Z,67.50
2019-03-16T14:41:25.116Z,63.30
2019-03-16T14:46:30.579Z,57.90
2019-03-16T14:51:35.836Z,59.00
2019-03-16T14:56:40.911Z,58.70
2019-03-16T15:20:33.546Z,63.50
2019-03-16T15:25:39.284Z,65.10
2019-03-16T15:30:50.674Z,64.30
2019-03-16T15:35:53.476Z,66.50
2019-03-16T15:41:18.026Z,67.40
2019-03-16T15:46:23.006Z,70.90
2019-03-16T15:51:28.572Z,71.50
2019-03-16T15:56:33.901Z,70.90
2019-03-16T16:01:40.742Z,71.60
2019-03-16T16:07:13.286Z,71.10
2019-03-16T16:12:19.954Z,73.10
2019-03-16T16:17:25.526Z,73.50
2019-03-16T16:22:32.766Z,73.40
2019-03-16T16:27:38.066Z,74.90
2019-03-16T16:32:44.738Z,74.70
2019-03-16T16:37:49.759Z,75.60
2019-03-16T16:42:54.889Z,75.00
2019-03-16T16:48:00.341Z,75.10
2019-03-16T16:53:05.892Z,73.90
2019-03-16T16:58:11.066Z,74.50
2019-03-16T17:03:17.156Z,74.50
2019-03-16T17:08:22.100Z,75.00
2019-03-16T17:13:27.334Z,76.10
2019-03-16T17:18:33.097Z,76.20
2019-03-16T17:23:38.615Z,76.40
2019-03-16T17:28:54.258Z,77.10
2019-03-16T17:34:00.011Z,77.90
2019-03-16T17:39:07.259Z,78.50
2019-03-16T17:44:12.816Z,78.30
2019-03-16T17:49:37.550Z,79.00
2019-03-16T17:54:54.472Z,79.40
2019-03-16T17:59:59.786Z,80.30
2019-03-16T18:05:24.809Z,80.80
2019-03-16T18:10:30.571Z,80.50
2019-03-16T18:15:35.693Z,80.20
2019-03-16T18:20:40.563Z,80.00
2019-03-16T18:25:45.926Z,80.40
2019-03-16T18:30:54.333Z,80.00
2019-03-16T18:35:58.684Z,79.90
2019-03-16T18:41:23.260Z,80.00
2019-03-16T18:46:28.843Z,80.10
2019-03-16T18:51:33.705Z,80.70
2019-03-16T18:56:41.791Z,81.00
2019-03-16T19:01:48.044Z,81.80
2019-03-16T19:06:53.795Z,82.40
2019-03-16T19:12:18.948Z,82.60
2019-03-16T19:17:24.509Z,82.90
2019-03-16T19:22:29.703Z,82.50
2019-03-16T19:27:35.542Z,82.60
2019-03-16T19:32:40.629Z,82.10
2019-03-16T19:38:05.233Z,81.60
2019-03-16T19:43:10.811Z,81.00
2019-03-16T19:48:35.217Z,80.90
2019-03-16T19:53:51.953Z,79.60
2019-03-16T19:59:00.775Z,79.90
2019-03-16T20:04:04.389Z,80.10
2019-03-16T20:09:28.919Z,79.70
2019-03-16T20:14:34.303Z,79.70
2019-03-16T20:19:40.229Z,80.30
2019-03-16T20:24:45.273Z,80.50
2019-03-16T20:29:50.894Z,81.00
2019-03-16T20:34:56.665Z,81.70
2019-03-16T20:40:02.079Z,82.20
2019-03-16T20:45:09.614Z,82.60
2019-03-16T20:50:16.614Z,83.90
2019-03-16T20:55:22.152Z,84.80
2019-03-16T21:00:46.551Z,85.30
2019-03-16T21:05:51.794Z,86.70
2019-03-16T21:11:16.243Z,90.00
2019-03-16T21:16:21.430Z,90.70
2019-03-16T21:21:27.147Z,91.70
2019-03-16T21:26:32.269Z,92.30
2019-03-16T21:31:47.507Z,92.80
2019-03-16T21:37:11.761Z,93.30
2019-03-16T21:42:17.487Z,94.70
2019-03-16T21:47:22.709Z,95.40
2019-03-16T21:52:47.422Z,96.10
2019-03-16T21:57:52.600Z,96.40
2019-03-16T22:03:17.174Z,97.20
2019-03-16T22:08:22.725Z,97.60
2019-03-16T22:13:28.107Z,97.90
2019-03-16T22:18:33.493Z,98.20
2019-03-16T22:23:38.654Z,98.50
2019-03-16T22:28:44.193Z,98.70
2019-03-16T22:34:08.651Z,98.80
2019-03-16T22:39:33.632Z,99.20
2019-03-16T22:44:38.985Z,99.50
2019-03-16T22:50:03.597Z,99.70
2019-03-16T22:55:28.011Z,99.90
2019-03-16T23:00:37.241Z,99.90
2019-03-16T23:05:42.233Z,99.90
2019-03-16T23:10:47.573Z,99.90
2019-03-16T23:15:52.753Z,99.90
2019-03-16T23:20:57.915Z,99.90
2019-03-16T23:26:03.704Z,99.90
2019-03-16T23:31:12.348Z,99.90
2019-03-16T23:36:16.324Z,99.90
2019-03-16T23:41:41.047Z,99.90
2019-03-16T23:46:46.456Z,99.90
2019-03-16T23:52:11.499Z,99.90
2019-03-16T23:57:16.801Z,99.90
